sensor_id;sensor_type;location;lat;lon;timestamp;pressure;altitude;pressure_sealevel;temperature
19061;BMP280;9663;48.996;8.334;2024-01-27T00:01:50;102142.19;;;10.34
19061;BMP280;9663;48.996;8.334;2024-01-27T00:04:16;102148.06;;;10.33
19061;BMP280;9663;48.996;8.334;2024-01-27T00:06:42;102145.53;;;10.33
19061;BMP280;9663;48.996;8.334;2024-01-27T00:09:07;102146.38;;;10.32
19061;BMP280;9663;48.996;8.334;2024-01-27T00:11:33;102149.75;;;10.32
19061;BMP280;9663;48.996;8.334;2024-01-27T00:13:59;102148.91;;;10.32
19061;BMP280;9663;48.996;8.334;2024-01-27T00:16:25;102142.94;;;10.31
19061;BMP280;9663;48.996;8.334;2024-01-27T00:18:51;102145.53;;;10.33
19061;BMP280;9663;48.996;8.334;2024-01-27T00:21:16;102148.03;;;10.31
19061;BMP280;9663;48.996;8.334;2024-01-27T00:23:42;102151.44;;;10.32
19061;BMP280;9663;48.996;8.334;2024-01-27T00:26:08;102151.41;;;10.30
19061;BMP280;9663;48.996;8.334;2024-01-27T00:28:33;102146.28;;;10.29
19061;BMP280;9663;48.996;8.334;2024-01-27T00:30:59;102159.81;;;10.29
19061;BMP280;9663;48.996;8.334;2024-01-27T00:33:25;102171.66;;;10.29
19061;BMP280;9663;48.996;8.334;2024-01-27T00:35:51;102159.78;;;10.28
19061;BMP280;9663;48.996;8.334;2024-01-27T00:38:17;102155.53;;;10.27
19061;BMP280;9663;48.996;8.334;2024-01-27T00:40:43;102162.31;;;10.28
19061;BMP280;9663;48.996;8.334;2024-01-27T00:43:09;102163.16;;;10.27
19061;BMP280;9663;48.996;8.334;2024-01-27T00:45:34;102163.06;;;10.24
19061;BMP280;9663;48.996;8.334;2024-01-27T00:48:00;102169.72;;;10.21
19061;BMP280;9663;48.996;8.334;2024-01-27T00:50:26;102174.63;;;10.15
19061;BMP280;9663;48.996;8.334;2024-01-27T00:52:52;102169.34;;;10.07
19061;BMP280;9663;48.996;8.334;2024-01-27T00:55:18;102173.47;;;10.04
19061;BMP280;9663;48.996;8.334;2024-01-27T00:57:43;102169.22;;;10.03
19061;BMP280;9663;48.996;8.334;2024-01-27T01:00:11;102176.78;;;10.01
19061;BMP280;9663;48.996;8.334;2024-01-27T01:02:37;102177.59;;;10.00
19061;BMP280;9663;48.996;8.334;2024-01-27T01:05:04;102186.94;;;10.01
19061;BMP280;9663;48.996;8.334;2024-01-27T01:07:31;102173.31;;;9.98
19061;BMP280;9663;48.996;8.334;2024-01-27T01:09:57;102186.00;;;9.98
19061;BMP280;9663;48.996;8.334;2024-01-27T01:12:23;102188.47;;;9.96
19061;BMP280;9663;48.996;8.334;2024-01-27T01:14:49;102184.22;;;9.95
19061;BMP280;9663;48.996;8.334;2024-01-27T01:17:14;102190.94;;;9.93
19061;BMP280;9663;48.996;8.334;2024-01-27T01:19:41;102194.25;;;9.92
19061;BMP280;9663;48.996;8.334;2024-01-27T01:22:07;102192.53;;;9.91
19061;BMP280;9663;48.996;8.334;2024-01-27T01:24:33;102195.91;;;9.92
19061;BMP280;9663;48.996;8.334;2024-01-27T01:26:59;102201.78;;;9.89
19061;BMP280;9663;48.996;8.334;2024-01-27T01:29:26;102197.56;;;9.90
19061;BMP280;9663;48.996;8.334;2024-01-27T01:31:52;102187.31;;;9.87
19061;BMP280;9663;48.996;8.334;2024-01-27T01:34:17;102201.69;;;9.86
19061;BMP280;9663;48.996;8.334;2024-01-27T01:36:43;102205.75;;;9.81
19061;BMP280;9663;48.996;8.334;2024-01-27T01:39:10;102215.00;;;9.79
19061;BMP280;9663;48.996;8.334;2024-01-27T01:41:36;102220.88;;;9.78
19061;BMP280;9663;48.996;8.334;2024-01-27T01:44:02;102222.50;;;9.77
19061;BMP280;9663;48.996;8.334;2024-01-27T01:46:28;102219.88;;;9.74
19061;BMP280;9663;48.996;8.334;2024-01-27T01:48:54;102231.66;;;9.72
19061;BMP280;9663;48.996;8.334;2024-01-27T01:51:20;102238.38;;;9.71
19061;BMP280;9663;48.996;8.334;2024-01-27T01:53:48;102234.91;;;9.68
19061;BMP280;9663;48.996;8.334;2024-01-27T01:56:15;102230.63;;;9.65
19061;BMP280;9663;48.996;8.334;2024-01-27T01:58:41;102232.19;;;9.62
19061;BMP280;9663;48.996;8.334;2024-01-27T02:01:07;102238.06;;;9.61
19061;BMP280;9663;48.996;8.334;2024-01-27T02:03:33;102237.97;;;9.58
19061;BMP280;9663;48.996;8.334;2024-01-27T02:05:59;102246.41;;;9.57
19061;BMP280;9663;48.996;8.334;2024-01-27T02:08:24;102256.44;;;9.54
19061;BMP280;9663;48.996;8.334;2024-01-27T02:10:50;102254.69;;;9.53
19061;BMP280;9663;48.996;8.334;2024-01-27T02:13:22;102258.13;;;9.53
19061;BMP280;9663;48.996;8.334;2024-01-27T02:15:49;102264.03;;;9.54
19061;BMP280;9663;48.996;8.334;2024-01-27T02:18:16;102268.25;;;9.53
19061;BMP280;9663;48.996;8.334;2024-01-27T02:20:42;102269.09;;;9.54
19061;BMP280;9663;48.996;8.334;2024-01-27T02:23:08;102263.88;;;9.49
19061;BMP280;9663;48.996;8.334;2024-01-27T02:25:35;102268.91;;;9.48
19061;BMP280;9663;48.996;8.334;2024-01-27T02:28:01;102271.44;;;9.48
19061;BMP280;9663;48.996;8.334;2024-01-27T02:30:30;102262.84;;;9.43
19061;BMP280;9663;48.996;8.334;2024-01-27T02:32:57;102262.72;;;9.40
19061;BMP280;9663;48.996;8.334;2024-01-27T02:35:24;102262.72;;;9.38
19061;BMP280;9663;48.996;8.334;2024-01-27T02:37:49;102257.59;;;9.37
19061;BMP280;9663;48.996;8.334;2024-01-27T02:40:15;102262.56;;;9.34
19061;BMP280;9663;48.996;8.334;2024-01-27T02:42:41;102259.06;;;9.31
19061;BMP280;9663;48.996;8.334;2024-01-27T02:45:08;102268.31;;;9.30
19061;BMP280;9663;48.996;8.334;2024-01-27T02:47:34;102264.09;;;9.29
19061;BMP280;9663;48.996;8.334;2024-01-27T02:50:00;102265.72;;;9.27
19061;BMP280;9663;48.996;8.334;2024-01-27T02:52:25;102269.91;;;9.27
19061;BMP280;9663;48.996;8.334;2024-01-27T02:54:53;102268.88;;;9.22
19061;BMP280;9663;48.996;8.334;2024-01-27T02:57:19;102269.72;;;9.21
19061;BMP280;9663;48.996;8.334;2024-01-27T02:59:48;102267.94;;;9.18
19061;BMP280;9663;48.996;8.334;2024-01-27T03:02:15;102271.13;;;9.13
19061;BMP280;9663;48.996;8.334;2024-01-27T03:04:41;102276.75;;;9.04
19061;BMP280;9663;48.996;8.334;2024-01-27T03:07:07;102281.66;;;9.00
19061;BMP280;9663;48.996;8.334;2024-01-27T03:09:33;102290.72;;;8.93
19061;BMP280;9663;48.996;8.334;2024-01-27T03:11:59;102274.47;;;8.87
19061;BMP280;9663;48.996;8.334;2024-01-27T03:14:24;102275.97;;;8.82
19061;BMP280;9663;48.996;8.334;2024-01-27T03:16:51;102272.44;;;8.77
19061;BMP280;9663;48.996;8.334;2024-01-27T03:19:17;102270.75;;;8.76
19061;BMP280;9663;48.996;8.334;2024-01-27T03:21:42;102267.28;;;8.74
19061;BMP280;9663;48.996;8.334;2024-01-27T03:24:08;102268.84;;;8.71
19061;BMP280;9663;48.996;8.334;2024-01-27T03:26:34;102267.06;;;8.68
19061;BMP280;9663;48.996;8.334;2024-01-27T03:29:00;102273.72;;;8.65
19061;BMP280;9663;48.996;8.334;2024-01-27T03:31:32;102281.25;;;8.63
19061;BMP280;9663;48.996;8.334;2024-01-27T03:34:00;102287.94;;;8.63
19061;BMP280;9663;48.996;8.334;2024-01-27T03:36:26;102277.78;;;8.61
19061;BMP280;9663;48.996;8.334;2024-01-27T03:38:52;102268.47;;;8.60
19061;BMP280;9663;48.996;8.334;2024-01-27T03:41:18;102261.00;;;8.63
19061;BMP280;9663;48.996;8.334;2024-01-27T03:43:43;102269.44;;;8.64
19061;BMP280;9663;48.996;8.334;2024-01-27T03:46:09;102272.09;;;8.67
19061;BMP280;9663;48.996;8.334;2024-01-27T03:48:35;102283.13;;;8.69
19061;BMP280;9663;48.996;8.334;2024-01-27T03:51:01;102285.69;;;8.70
19061;BMP280;9663;48.996;8.334;2024-01-27T03:53:27;102290.81;;;8.72
19061;BMP280;9663;48.996;8.334;2024-01-27T03:55:53;102292.50;;;8.73
19061;BMP280;9663;48.996;8.334;2024-01-27T03:58:19;102290.81;;;8.72
19061;BMP280;9663;48.996;8.334;2024-01-27T04:00:45;102289.94;;;8.71
19061;BMP280;9663;48.996;8.334;2024-01-27T04:03:11;102289.91;;;8.70
19061;BMP280;9663;48.996;8.334;2024-01-27T04:05:36;102292.31;;;8.67
19061;BMP280;9663;48.996;8.334;2024-01-27T04:08:04;102301.47;;;8.63
19061;BMP280;9663;48.996;8.334;2024-01-27T04:10:30;102310.63;;;8.60
19061;BMP280;9663;48.996;8.334;2024-01-27T04:12:56;102307.94;;;8.55
19061;BMP280;9663;48.996;8.334;2024-01-27T04:15:21;102308.59;;;8.50
19061;BMP280;9663;48.996;8.334;2024-01-27T04:17:47;102305.06;;;8.47
19061;BMP280;9663;48.996;8.334;2024-01-27T04:20:13;102305.06;;;8.47
19061;BMP280;9663;48.996;8.334;2024-01-27T04:22:38;102307.50;;;8.44
19061;BMP280;9663;48.996;8.334;2024-01-27T04:25:05;102306.50;;;8.40
19061;BMP280;9663;48.996;8.334;2024-01-27T04:27:38;102309.75;;;8.36
19061;BMP280;9663;48.996;8.334;2024-01-27T04:30:06;102318.94;;;8.34
19061;BMP280;9663;48.996;8.334;2024-01-27T04:32:32;102318.09;;;8.34
19061;BMP280;9663;48.996;8.334;2024-01-27T04:34:58;102316.38;;;8.33
19061;BMP280;9663;48.996;8.334;2024-01-27T04:37:24;102316.31;;;8.31
19061;BMP280;9663;48.996;8.334;2024-01-27T04:39:49;102323.84;;;8.30
19061;BMP280;9663;48.996;8.334;2024-01-27T04:42:15;102324.59;;;8.27
19061;BMP280;9663;48.996;8.334;2024-01-27T04:44:42;102331.25;;;8.25
19061;BMP280;9663;48.996;8.334;2024-01-27T04:47:07;102332.00;;;8.23
19061;BMP280;9663;48.996;8.334;2024-01-27T04:49:33;102333.69;;;8.22
19061;BMP280;9663;48.996;8.334;2024-01-27T04:51:59;102332.00;;;8.23
19061;BMP280;9663;48.996;8.334;2024-01-27T04:54:24;102327.69;;;8.20
19061;BMP280;9663;48.996;8.334;2024-01-27T04:56:51;102325.22;;;8.22
19061;BMP280;9663;48.996;8.334;2024-01-27T04:59:16;102315.97;;;8.22
19061;BMP280;9663;48.996;8.334;2024-01-27T05:01:46;102329.47;;;8.23
19061;BMP280;9663;48.996;8.334;2024-01-27T05:04:12;102330.25;;;8.22
19061;BMP280;9663;48.996;8.334;2024-01-27T05:06:38;102328.63;;;8.22
19061;BMP280;9663;48.996;8.334;2024-01-27T05:09:04;102328.56;;;8.21
19061;BMP280;9663;48.996;8.334;2024-01-27T05:11:32;102320.97;;;8.21
19061;BMP280;9663;48.996;8.334;2024-01-27T05:14:01;102316.78;;;8.21
19061;BMP280;9663;48.996;8.334;2024-01-27T05:16:28;102320.16;;;8.22
19061;BMP280;9663;48.996;8.334;2024-01-27T05:18:54;102312.47;;;8.19
19061;BMP280;9663;48.996;8.334;2024-01-27T05:21:19;102325.13;;;8.19
19061;BMP280;9663;48.996;8.334;2024-01-27T05:23:45;102322.53;;;8.17
19061;BMP280;9663;48.996;8.334;2024-01-27T05:26:11;102321.66;;;8.17
19061;BMP280;9663;48.996;8.334;2024-01-27T05:28:40;102322.59;;;8.19
19061;BMP280;9663;48.996;8.334;2024-01-27T05:31:09;102319.19;;;8.18
19061;BMP280;9663;48.996;8.334;2024-01-27T05:33:35;102320.00;;;8.17
19061;BMP280;9663;48.996;8.334;2024-01-27T05:36:02;102319.94;;;8.16
19061;BMP280;9663;48.996;8.334;2024-01-27T05:38:28;102325.00;;;8.16
19061;BMP280;9663;48.996;8.334;2024-01-27T05:40:55;102311.47;;;8.15
19061;BMP280;9663;48.996;8.334;2024-01-27T05:43:21;102313.16;;;8.15
19061;BMP280;9663;48.996;8.334;2024-01-27T05:45:48;102312.25;;;8.13
19061;BMP280;9663;48.996;8.334;2024-01-27T05:48:14;102314.72;;;8.11
19061;BMP280;9663;48.996;8.334;2024-01-27T05:50:42;102316.28;;;8.09
19061;BMP280;9663;48.996;8.334;2024-01-27T05:53:08;102325.44;;;8.06
19061;BMP280;9663;48.996;8.334;2024-01-27T05:55:34;102320.25;;;8.03
19061;BMP280;9663;48.996;8.334;2024-01-27T05:57:59;102311.69;;;8.00
19061;BMP280;9663;48.996;8.334;2024-01-27T06:00:25;102326.75;;;7.97
19061;BMP280;9663;48.996;8.334;2024-01-27T06:02:51;102325.75;;;7.93
19061;BMP280;9663;48.996;8.334;2024-01-27T06:05:17;102326.50;;;7.91
19061;BMP280;9663;48.996;8.334;2024-01-27T06:07:43;102326.44;;;7.89
19061;BMP280;9663;48.996;8.334;2024-01-27T06:10:09;102338.28;;;7.90
19061;BMP280;9663;48.996;8.334;2024-01-27T06:12:37;102344.13;;;7.89
19061;BMP280;9663;48.996;8.334;2024-01-27T06:15:03;102346.66;;;7.89
19061;BMP280;9663;48.996;8.334;2024-01-27T06:17:29;102341.56;;;7.88
19061;BMP280;9663;48.996;8.334;2024-01-27T06:19:55;102342.41;;;7.88
19061;BMP280;9663;48.996;8.334;2024-01-27T06:22:21;102350.00;;;7.88
19061;BMP280;9663;48.996;8.334;2024-01-27T06:24:46;102348.31;;;7.89
19061;BMP280;9663;48.996;8.334;2024-01-27T06:27:12;102350.84;;;7.89
19061;BMP280;9663;48.996;8.334;2024-01-27T06:29:37;102352.59;;;7.90
19061;BMP280;9663;48.996;8.334;2024-01-27T06:32:04;102356.75;;;7.89
19061;BMP280;9663;48.996;8.334;2024-01-27T06:34:29;102354.19;;;7.88
19061;BMP280;9663;48.996;8.334;2024-01-27T06:36:55;102361.81;;;7.89
19061;BMP280;9663;48.996;8.334;2024-01-27T06:39:21;102356.72;;;7.88
19061;BMP280;9663;48.996;8.334;2024-01-27T06:41:47;102351.69;;;7.89
19061;BMP280;9663;48.996;8.334;2024-01-27T06:44:13;102354.22;;;7.89
19061;BMP280;9663;48.996;8.334;2024-01-27T06:46:39;102351.69;;;7.88
19061;BMP280;9663;48.996;8.334;2024-01-27T06:49:04;102348.13;;;7.84
19061;BMP280;9663;48.996;8.334;2024-01-27T06:51:30;102353.09;;;7.81
19061;BMP280;9663;48.996;8.334;2024-01-27T06:53:55;102358.94;;;7.80
19061;BMP280;9663;48.996;8.334;2024-01-27T06:56:21;102352.09;;;7.78
19061;BMP280;9663;48.996;8.334;2024-01-27T06:58:47;102341.06;;;7.76
19061;BMP280;9663;48.996;8.334;2024-01-27T07:01:12;102344.34;;;7.73
19061;BMP280;9663;48.996;8.334;2024-01-27T07:03:38;102342.53;;;7.71
19061;BMP280;9663;48.996;8.334;2024-01-27T07:06:05;102352.53;;;7.68
19061;BMP280;9663;48.996;8.334;2024-01-27T07:08:31;102358.41;;;7.67
19061;BMP280;9663;48.996;8.334;2024-01-27T07:10:58;102358.16;;;7.61
19061;BMP280;9663;48.996;8.334;2024-01-27T07:13:24;102352.06;;;7.56
19061;BMP280;9663;48.996;8.334;2024-01-27T07:15:49;102352.81;;;7.54
19061;BMP280;9663;48.996;8.334;2024-01-27T07:18:15;102356.13;;;7.53
19061;BMP280;9663;48.996;8.334;2024-01-27T07:20:43;102351.84;;;7.52
19061;BMP280;9663;48.996;8.334;2024-01-27T07:23:08;102359.41;;;7.50
19061;BMP280;9663;48.996;8.334;2024-01-27T07:25:34;102361.97;;;7.52
19061;BMP280;9663;48.996;8.334;2024-01-27T07:27:59;102357.78;;;7.52
19061;BMP280;9663;48.996;8.334;2024-01-27T07:30:25;102359.56;;;7.55
19061;BMP280;9663;48.996;8.334;2024-01-27T07:32:51;102369.78;;;7.58
19061;BMP280;9663;48.996;8.334;2024-01-27T07:35:16;102366.53;;;7.60
19061;BMP280;9663;48.996;8.334;2024-01-27T07:37:42;102374.22;;;7.63
19061;BMP280;9663;48.996;8.334;2024-01-27T07:40:09;102371.03;;;7.67
19061;BMP280;9663;48.996;8.334;2024-01-27T07:42:35;102366.91;;;7.69
19061;BMP280;9663;48.996;8.334;2024-01-27T07:45:01;102376.28;;;7.71
19061;BMP280;9663;48.996;8.334;2024-01-27T07:47:27;102377.00;;;7.69
19061;BMP280;9663;48.996;8.334;2024-01-27T07:49:53;102360.88;;;7.65
19061;BMP280;9663;48.996;8.334;2024-01-27T07:52:19;102367.69;;;7.68
19061;BMP280;9663;48.996;8.334;2024-01-27T07:54:45;102369.50;;;7.70
19061;BMP280;9663;48.996;8.334;2024-01-27T07:57:11;102368.06;;;7.77
19061;BMP280;9663;48.996;8.334;2024-01-27T07:59:38;102367.63;;;7.87
19061;BMP280;9663;48.996;8.334;2024-01-27T08:02:04;102358.75;;;7.96
19061;BMP280;9663;48.996;8.334;2024-01-27T08:04:30;102351.56;;;8.07
19061;BMP280;9663;48.996;8.334;2024-01-27T08:06:56;102344.41;;;8.17
19061;BMP280;9663;48.996;8.334;2024-01-27T08:09:21;102351.53;;;8.27
19061;BMP280;9663;48.996;8.334;2024-01-27T08:11:47;102340.88;;;8.35
19061;BMP280;9663;48.996;8.334;2024-01-27T08:14:18;102352.22;;;8.45
19061;BMP280;9663;48.996;8.334;2024-01-27T08:16:44;102362.69;;;8.53
19061;BMP280;9663;48.996;8.334;2024-01-27T08:19:09;102369.75;;;8.62
19061;BMP280;9663;48.996;8.334;2024-01-27T08:21:35;102373.28;;;8.67
19061;BMP280;9663;48.996;8.334;2024-01-27T08:24:01;102358.31;;;8.73
19061;BMP280;9663;48.996;8.334;2024-01-27T08:26:26;102362.75;;;8.78
19061;BMP280;9663;48.996;8.334;2024-01-27T08:28:52;102367.28;;;8.87
19061;BMP280;9663;48.996;8.334;2024-01-27T08:31:19;102367.47;;;8.93
19061;BMP280;9663;48.996;8.334;2024-01-27T08:33:45;102361.00;;;9.00
19061;BMP280;9663;48.996;8.334;2024-01-27T08:36:14;102368.94;;;9.09
19061;BMP280;9663;48.996;8.334;2024-01-27T08:38:40;102387.72;;;9.16
19061;BMP280;9663;48.996;8.334;2024-01-27T08:41:06;102380.38;;;9.23
19061;BMP280;9663;48.996;8.334;2024-01-27T08:43:31;102383.22;;;9.32
19061;BMP280;9663;48.996;8.334;2024-01-27T08:45:58;102374.16;;;9.38
19061;BMP280;9663;48.996;8.334;2024-01-27T08:48:25;102381.22;;;9.47
19061;BMP280;9663;48.996;8.334;2024-01-27T08:50:51;102377.28;;;9.56
19061;BMP280;9663;48.996;8.334;2024-01-27T08:53:17;102378.44;;;9.66
19061;BMP280;9663;48.996;8.334;2024-01-27T08:55:42;102369.38;;;9.72
19061;BMP280;9663;48.996;8.334;2024-01-27T08:58:08;102376.28;;;9.77
19061;BMP280;9663;48.996;8.334;2024-01-27T09:00:34;102377.25;;;9.81
19061;BMP280;9663;48.996;8.334;2024-01-27T09:02:59;102382.63;;;9.90
19061;BMP280;9663;48.996;8.334;2024-01-27T09:05:25;102376.97;;;9.97
19061;BMP280;9663;48.996;8.334;2024-01-27T09:07:51;102374.72;;;10.06
19061;BMP280;9663;48.996;8.334;2024-01-27T09:10:16;102371.59;;;10.14
19061;BMP280;9663;48.996;8.334;2024-01-27T09:12:42;102377.03;;;10.26
19061;BMP280;9663;48.996;8.334;2024-01-27T09:15:09;102370.59;;;10.37
19061;BMP280;9663;48.996;8.334;2024-01-27T09:17:35;102367.56;;;10.48
19061;BMP280;9663;48.996;8.334;2024-01-27T09:20:01;102372.16;;;10.61
19061;BMP280;9663;48.996;8.334;2024-01-27T09:22:27;102373.38;;;10.73
19061;BMP280;9663;48.996;8.334;2024-01-27T09:24:53;102369.47;;;10.86
19061;BMP280;9663;48.996;8.334;2024-01-27T09:27:20;102365.63;;;11.00
19061;BMP280;9663;48.996;8.334;2024-01-27T09:29:46;102368.63;;;11.16
19061;BMP280;9663;48.996;8.334;2024-01-27T09:32:12;102370.63;;;11.27
19061;BMP280;9663;48.996;8.334;2024-01-27T09:34:38;102370.91;;;11.39
19061;BMP280;9663;48.996;8.334;2024-01-27T09:37:03;102364.50;;;11.52
19061;BMP280;9663;48.996;8.334;2024-01-27T09:39:30;102371.56;;;11.64
19061;BMP280;9663;48.996;8.334;2024-01-27T09:42:00;102365.97;;;11.77
19061;BMP280;9663;48.996;8.334;2024-01-27T09:44:31;102367.06;;;11.87
19061;BMP280;9663;48.996;8.334;2024-01-27T09:46:57;102365.59;;;11.96
19061;BMP280;9663;48.996;8.334;2024-01-27T09:49:25;102352.28;;;12.07
19061;BMP280;9663;48.996;8.334;2024-01-27T09:51:51;102347.38;;;12.16
19061;BMP280;9663;48.996;8.334;2024-01-27T09:54:17;102344.94;;;12.21
19061;BMP280;9663;48.996;8.334;2024-01-27T09:56:46;102342.50;;;12.25
19061;BMP280;9663;48.996;8.334;2024-01-27T09:59:12;102340.09;;;12.33
19061;BMP280;9663;48.996;8.334;2024-01-27T10:01:40;102336.06;;;12.42
19061;BMP280;9663;48.996;8.334;2024-01-27T10:04:08;102337.97;;;12.52
19061;BMP280;9663;48.996;8.334;2024-01-27T10:06:34;102342.47;;;12.63
19061;BMP280;9663;48.996;8.334;2024-01-27T10:09:00;102318.03;;;12.73
19061;BMP280;9663;48.996;8.334;2024-01-27T10:11:28;102308.81;;;12.80
19061;BMP280;9663;48.996;8.334;2024-01-27T10:13:57;102314.97;;;12.90
19061;BMP280;9663;48.996;8.334;2024-01-27T10:16:25;102312.59;;;12.97
19061;BMP280;9663;48.996;8.334;2024-01-27T10:19:03;102320.38;;;13.06
19061;BMP280;9663;48.996;8.334;2024-01-27T10:21:29;102322.28;;;13.18
19061;BMP280;9663;48.996;8.334;2024-01-27T10:23:55;102321.66;;;13.30
19061;BMP280;9663;48.996;8.334;2024-01-27T10:26:20;102327.00;;;13.44
19061;BMP280;9663;48.996;8.334;2024-01-27T10:28:54;102325.56;;;13.61
19061;BMP280;9663;48.996;8.334;2024-01-27T10:31:20;102329.94;;;13.69
19061;BMP280;9663;48.996;8.334;2024-01-27T10:33:53;102322.41;;;13.76
19061;BMP280;9663;48.996;8.334;2024-01-27T10:36:19;102326.75;;;13.83
19061;BMP280;9663;48.996;8.334;2024-01-27T10:38:45;102329.44;;;13.91
19061;BMP280;9663;48.996;8.334;2024-01-27T10:41:12;102327.84;;;14.00
19061;BMP280;9663;48.996;8.334;2024-01-27T10:43:44;102320.31;;;14.06
19061;BMP280;9663;48.996;8.334;2024-01-27T10:46:12;102307.63;;;14.10
19061;BMP280;9663;48.996;8.334;2024-01-27T10:48:40;102299.19;;;14.16
19061;BMP280;9663;48.996;8.334;2024-01-27T10:51:09;102309.50;;;14.23
19061;BMP280;9663;48.996;8.334;2024-01-27T10:53:36;102302.78;;;14.28
19061;BMP280;9663;48.996;8.334;2024-01-27T10:56:04;102305.34;;;14.31
19061;BMP280;9663;48.996;8.334;2024-01-27T10:58:35;102308.81;;;14.35
19061;BMP280;9663;48.996;8.334;2024-01-27T11:01:11;102289.28;;;14.41
19061;BMP280;9663;48.996;8.334;2024-01-27T11:03:42;102296.22;;;14.51
19061;BMP280;9663;48.996;8.334;2024-01-27T11:06:09;102303.16;;;14.62
19061;BMP280;9663;48.996;8.334;2024-01-27T11:08:34;102303.25;;;14.70
19061;BMP280;9663;48.996;8.334;2024-01-27T11:11:01;102304.16;;;14.75
19061;BMP280;9663;48.996;8.334;2024-01-27T11:13:32;102304.19;;;14.78
19061;BMP280;9663;48.996;8.334;2024-01-27T11:15:58;102303.34;;;14.79
19061;BMP280;9663;48.996;8.334;2024-01-27T11:18:26;102305.06;;;14.80
19061;BMP280;9663;48.996;8.334;2024-01-27T11:20:57;102300.84;;;14.83
19061;BMP280;9663;48.996;8.334;2024-01-27T11:23:33;102292.38;;;14.89
19061;BMP280;9663;48.996;8.334;2024-01-27T11:26:06;102294.16;;;14.94
19061;BMP280;9663;48.996;8.334;2024-01-27T11:28:32;102282.28;;;15.00
19061;BMP280;9663;48.996;8.334;2024-01-27T11:30:57;102277.22;;;15.06
19061;BMP280;9663;48.996;8.334;2024-01-27T11:33:26;102268.03;;;15.26
19061;BMP280;9663;48.996;8.334;2024-01-27T11:36:05;102276.16;;;15.91
19061;BMP280;9663;48.996;8.334;2024-01-27T11:38:32;102252.66;;;17.32
19061;BMP280;9663;48.996;8.334;2024-01-27T11:41:00;102234.00;;;18.99
19061;BMP280;9663;48.996;8.334;2024-01-27T11:43:26;102228.84;;;20.56
19061;BMP280;9663;48.996;8.334;2024-01-27T11:46:00;102210.63;;;22.09
19061;BMP280;9663;48.996;8.334;2024-01-27T11:48:26;102206.59;;;23.40
19061;BMP280;9663;48.996;8.334;2024-01-27T11:51:11;102203.69;;;24.43
19061;BMP280;9663;48.996;8.334;2024-01-27T11:53:37;102206.78;;;25.06
19061;BMP280;9663;48.996;8.334;2024-01-27T11:56:04;102204.25;;;25.53
19061;BMP280;9663;48.996;8.334;2024-01-27T11:58:30;102192.72;;;26.07
19061;BMP280;9663;48.996;8.334;2024-01-27T12:03:23;102182.63;;;26.65
19061;BMP280;9663;48.996;8.334;2024-01-27T12:05:49;102173.59;;;27.14
19061;BMP280;9663;48.996;8.334;2024-01-27T12:08:19;102173.47;;;27.57
19061;BMP280;9663;48.996;8.334;2024-01-27T12:10:45;102171.13;;;28.07
19061;BMP280;9663;48.996;8.334;2024-01-27T12:13:11;102172.81;;;28.62
19061;BMP280;9663;48.996;8.334;2024-01-27T12:15:37;102175.00;;;28.87
19061;BMP280;9663;48.996;8.334;2024-01-27T12:18:06;102172.38;;;28.87
19061;BMP280;9663;48.996;8.334;2024-01-27T12:20:32;102175.47;;;28.95
19061;BMP280;9663;48.996;8.334;2024-01-27T12:23:06;102167.31;;;29.18
19061;BMP280;9663;48.996;8.334;2024-01-27T12:25:33;102168.06;;;29.54
19061;BMP280;9663;48.996;8.334;2024-01-27T12:28:06;102163.50;;;29.57
19061;BMP280;9663;48.996;8.334;2024-01-27T12:30:33;102164.19;;;29.93
19061;BMP280;9663;48.996;8.334;2024-01-27T12:33:00;102155.50;;;30.38
19061;BMP280;9663;48.996;8.334;2024-01-27T12:35:26;102164.91;;;30.71
19061;BMP280;9663;48.996;8.334;2024-01-27T12:37:53;102161.22;;;30.89
19061;BMP280;9663;48.996;8.334;2024-01-27T12:40:21;102152.13;;;31.10
19061;BMP280;9663;48.996;8.334;2024-01-27T12:42:50;102152.06;;;31.25
19061;BMP280;9663;48.996;8.334;2024-01-27T12:45:16;102148.31;;;31.43
19061;BMP280;9663;48.996;8.334;2024-01-27T12:47:42;102138.59;;;31.59
19061;BMP280;9663;48.996;8.334;2024-01-27T12:50:09;102143.47;;;31.65
19061;BMP280;9663;48.996;8.334;2024-01-27T12:52:34;102144.34;;;31.08
19061;BMP280;9663;48.996;8.334;2024-01-27T12:55:00;102137.72;;;29.67
19061;BMP280;9663;48.996;8.334;2024-01-27T12:57:26;102151.78;;;27.93
19061;BMP280;9663;48.996;8.334;2024-01-27T13:02:17;102166.44;;;24.71
19061;BMP280;9663;48.996;8.334;2024-01-27T13:04:43;102168.75;;;23.36
19061;BMP280;9663;48.996;8.334;2024-01-27T13:07:09;102170.66;;;22.26
19061;BMP280;9663;48.996;8.334;2024-01-27T13:09:36;102168.19;;;21.35
19061;BMP280;9663;48.996;8.334;2024-01-27T13:12:03;102166.03;;;20.60
19061;BMP280;9663;48.996;8.334;2024-01-27T13:14:29;102167.84;;;19.94
19061;BMP280;9663;48.996;8.334;2024-01-27T13:16:55;102171.09;;;19.34
19061;BMP280;9663;48.996;8.334;2024-01-27T13:19:22;102168.94;;;18.87
19061;BMP280;9663;48.996;8.334;2024-01-27T13:21:47;102168.41;;;18.46
19061;BMP280;9663;48.996;8.334;2024-01-27T13:24:13;102169.44;;;18.16
19061;BMP280;9663;48.996;8.334;2024-01-27T13:26:39;102155.88;;;17.89
19061;BMP280;9663;48.996;8.334;2024-01-27T13:29:05;102161.06;;;17.65
19061;BMP280;9663;48.996;8.334;2024-01-27T13:31:33;102162.00;;;17.45
19061;BMP280;9663;48.996;8.334;2024-01-27T13:33:58;102162.03;;;17.25
19061;BMP280;9663;48.996;8.334;2024-01-27T13:36:27;102162.03;;;17.09
19061;BMP280;9663;48.996;8.334;2024-01-27T13:38:53;102156.91;;;16.91
19061;BMP280;9663;48.996;8.334;2024-01-27T13:41:19;102166.34;;;16.79
19061;BMP280;9663;48.996;8.334;2024-01-27T13:43:45;102155.22;;;16.68
19061;BMP280;9663;48.996;8.334;2024-01-27T13:46:11;102156.91;;;16.60
19061;BMP280;9663;48.996;8.334;2024-01-27T13:48:37;102145.81;;;16.52
19061;BMP280;9663;48.996;8.334;2024-01-27T13:51:03;102150.06;;;16.47
19061;BMP280;9663;48.996;8.334;2024-01-27T13:53:29;102154.31;;;16.41
19061;BMP280;9663;48.996;8.334;2024-01-27T13:55:55;102159.44;;;16.39
19061;BMP280;9663;48.996;8.334;2024-01-27T13:58:21;102159.47;;;16.38
19061;BMP280;9663;48.996;8.334;2024-01-27T14:00:47;102155.19;;;16.37
19061;BMP280;9663;48.996;8.334;2024-01-27T14:03:13;102163.72;;;16.39
19061;BMP280;9663;48.996;8.334;2024-01-27T14:05:39;102162.03;;;16.38
19061;BMP280;9663;48.996;8.334;2024-01-27T14:08:06;102167.13;;;16.36
19061;BMP280;9663;48.996;8.334;2024-01-27T14:10:33;102151.78;;;16.36
19061;BMP280;9663;48.996;8.334;2024-01-27T14:13:01;102156.03;;;16.36
19061;BMP280;9663;48.996;8.334;2024-01-27T14:15:30;102158.59;;;16.36
19061;BMP280;9663;48.996;8.334;2024-01-27T14:17:56;102150.88;;;16.34